createdAt,value
2023-05-20T00:00:50.491Z,17.6
2023-05-20T00:15:50.528Z,17.4
2023-05-20T00:30:55.725Z,18.9
2023-05-20T00:45:52.820Z,18.5
2023-05-20T01:00:53.219Z,19.2
2023-05-20T01:15:53.816Z,20.6
2023-05-20T01:30:57.391Z,20.9
2023-05-20T01:45:55.290Z,21.3
2023-05-20T02:00:56.831Z,20.6
2023-05-20T02:15:56.198Z,20.2
2023-05-20T02:30:57.288Z,21.5
2023-05-20T02:45:59.054Z,21.1
2023-05-20T03:00:59.255Z,23.3
2023-05-20T03:16:02.501Z,21.8
2023-05-20T03:31:03.398Z,20.8
2023-05-20T03:37:18.697Z,20.5
2023-05-20T03:52:19.307Z,20
2023-05-20T04:07:19.657Z,22
2023-05-20T04:22:20.175Z,20.8
2023-05-20T04:37:20.632Z,22.6
2023-05-20T04:52:22.356Z,21.4
2023-05-20T05:07:22.095Z,19.9
2023-05-20T05:22:22.388Z,20.4
2023-05-20T05:37:22.973Z,19.2
2023-05-20T05:52:24.774Z,18.6
2023-05-20T06:07:27.084Z,19.4
2023-05-20T06:22:25.364Z,21.2
2023-05-20T06:37:25.499Z,20.5
2023-05-20T06:52:26.448Z,18.4
2023-05-20T07:07:28.024Z,18.5
2023-05-20T07:22:28.906Z,15.8
2023-05-20T07:37:29.378Z,18.5
2023-05-20T07:52:56.913Z,17.1
2023-05-20T08:07:29.865Z,15.6
2023-05-20T08:22:42.038Z,15.8
2023-05-20T08:37:31.223Z,13
2023-05-20T08:52:32.123Z,16.8
2023-05-20T09:07:32.366Z,15.1
2023-05-20T09:22:37.088Z,14
2023-05-20T09:37:33.810Z,13.1
2023-05-20T09:52:34.683Z,12.1
2023-05-20T10:07:42.907Z,12.1
2023-05-20T10:22:35.152Z,11
2023-05-20T10:37:36.100Z,12
2023-05-20T10:52:37.024Z,9.9
2023-05-20T11:22:39.712Z,8.2
2023-05-20T11:37:38.938Z,6.7
2023-05-20T11:52:40.473Z,7.6
2023-05-20T12:07:44.115Z,5.9
2023-05-20T12:22:41.184Z,5.4
2023-05-20T12:37:42.805Z,5.8
2023-05-20T12:52:42.981Z,5.5
2023-05-20T13:07:43.938Z,5.5
2023-05-20T13:22:43.808Z,7.2
2023-05-20T13:37:43.884Z,9.6
2023-05-20T13:52:44.883Z,8
2023-05-20T14:07:44.847Z,6.2
2023-05-20T14:22:46.158Z,5.8
2023-05-20T14:37:55.962Z,5.7
2023-05-20T14:52:48.915Z,4.4
2023-05-20T15:07:48.098Z,4.8
2023-05-20T15:22:48.611Z,3.8
2023-05-20T15:37:49.888Z,3.4
2023-05-20T15:52:50.471Z,3.8
2023-05-20T16:07:50.292Z,4
2023-05-20T16:22:50.520Z,3.6
2023-05-20T16:37:51.819Z,3.9
2023-05-20T16:52:52.749Z,3.8
2023-05-20T17:07:53.153Z,4.7
2023-05-20T17:22:53.502Z,5.8
2023-05-20T17:37:54.331Z,6.5
2023-05-20T17:52:57.598Z,7.8
2023-05-20T18:07:57.152Z,7.3
2023-05-20T18:22:56.295Z,7.1
2023-05-20T18:37:57.914Z,7.8
2023-05-20T18:52:58.646Z,8.3
2023-05-20T19:07:59.200Z,8.2
2023-05-20T19:22:59.154Z,8.6
2023-05-20T19:37:59.366Z,8.5
2023-05-20T19:53:02.550Z,6.9
2023-05-20T20:08:01.188Z,6.9
2023-05-20T20:23:01.178Z,6.2
2023-05-20T20:38:02.156Z,8
2023-05-20T20:53:04.117Z,8.7
2023-05-20T21:08:05.157Z,8.7
2023-05-20T21:23:05.040Z,9.1
2023-05-20T21:38:05.014Z,9.9
2023-05-20T21:53:05.017Z,9.4
2023-05-20T22:00:39.405Z,8.9
2023-05-20T22:15:38.364Z,8.8
2023-05-20T22:30:37.542Z,8.7
2023-05-20T22:45:38.501Z,9.8
2023-05-20T23:00:38.475Z,9.1
2023-05-20T23:15:39.094Z,9.6
2023-05-20T23:30:40.095Z,9.7
2023-05-20T23:45:39.977Z,12.6
